Trubcevsk, Russia
Current Conditions -  °F | °C
As of 8:00 PM on Friday 28 Nov 2014 (Local Time) from UMGG Reporting Station
Overcast Overcast  
Wind Chill: 17°   Ceiling: 1600
Heat Index: 25°   Visibility: 6mi
Dew Point: 14°   Wind: 7mph
Humidity: 64%   Direction: 50°NE
Pressure: 30.45"   Gusts: NA
Location:  52.58°N, 33.79°E
Report Text: UMGG 281700Z 05003MPS 9999 OVC016CB M04/M10 Q1031 R10/490247NOSIG
Loading
Personal Weather Stations






























Interactive Weather Map New forecast layout! Learn more

10-Day Weather Forecast

Advertisements
Track Severe Weather on mobile